createdAt,value
2022-10-04T00:03:13.768Z,14.53
2022-10-04T00:08:30.161Z,14.44
2022-10-04T00:13:48.485Z,14.35
2022-10-04T00:19:07.862Z,14.24
2022-10-04T00:24:22.181Z,14.20
2022-10-04T00:29:35.689Z,14.21
2022-10-04T00:34:56.892Z,14.21
2022-10-04T00:40:17.030Z,14.17
2022-10-04T00:45:38.572Z,14.15
2022-10-04T00:50:54.932Z,14.18
2022-10-04T00:56:05.611Z,14.19
2022-10-04T01:01:14.494Z,14.18
2022-10-04T01:06:29.032Z,14.16
2022-10-04T01:11:49.359Z,14.09
2022-10-04T01:17:02.329Z,14.09
2022-10-04T01:22:27.171Z,14.13
2022-10-04T01:28:04.046Z,14.14
2022-10-04T01:33:23.026Z,14.12
2022-10-04T01:38:32.536Z,14.12
2022-10-04T01:43:52.413Z,14.12
2022-10-04T01:49:16.849Z,14.10
2022-10-04T01:54:38.639Z,14.12
2022-10-04T02:00:11.079Z,14.10
2022-10-04T02:05:40.346Z,14.15
2022-10-04T02:16:20.351Z,14.03
2022-10-04T02:21:27.771Z,13.99
2022-10-04T02:26:37.545Z,13.98
2022-10-04T02:32:01.271Z,13.92
2022-10-04T02:37:11.704Z,13.78
2022-10-04T02:42:30.768Z,13.67
2022-10-04T02:47:48.169Z,13.58
2022-10-04T02:53:04.906Z,13.47
2022-10-04T02:58:24.187Z,13.39
2022-10-04T03:03:48.497Z,13.39
2022-10-04T03:08:58.614Z,13.41
2022-10-04T03:14:21.582Z,13.33
2022-10-04T03:19:46.904Z,13.19
2022-10-04T03:24:59.616Z,13.12
2022-10-04T03:30:09.021Z,13.07
2022-10-04T03:41:20.089Z,12.93
2022-10-04T03:46:36.422Z,12.84
2022-10-04T03:51:52.331Z,12.76
2022-10-04T03:57:00.567Z,12.68
2022-10-04T04:02:19.528Z,12.64
2022-10-04T04:07:39.066Z,12.54
2022-10-04T04:12:59.761Z,12.53
2022-10-04T04:18:09.509Z,12.51
2022-10-04T04:23:33.684Z,12.51
2022-10-04T04:28:53.409Z,12.46
2022-10-04T04:34:06.141Z,12.41
2022-10-04T04:39:57.392Z,12.36
2022-10-04T04:45:12.580Z,12.29
2022-10-04T04:50:22.753Z,12.24
2022-10-04T04:56:11.017Z,12.23
2022-10-04T05:01:36.673Z,12.20
2022-10-04T05:06:44.488Z,12.23
2022-10-04T05:11:57.494Z,12.28
2022-10-04T05:17:10.783Z,12.33
2022-10-04T05:22:23.743Z,12.29
2022-10-04T05:27:39.442Z,12.36
2022-10-04T05:32:55.933Z,12.42
2022-10-04T05:38:20.363Z,12.53
2022-10-04T05:43:44.307Z,12.63
2022-10-04T05:48:57.652Z,12.70
2022-10-04T05:54:05.171Z,12.74
2022-10-04T05:59:35.622Z,12.90
2022-10-04T06:05:01.368Z,12.97
2022-10-04T06:10:43.729Z,13.09
2022-10-04T06:16:14.698Z,13.17
2022-10-04T06:21:41.613Z,13.28
2022-10-04T06:27:08.174Z,13.39
2022-10-04T06:32:42.427Z,13.47
2022-10-04T06:38:34.002Z,13.55
2022-10-04T06:44:00.695Z,13.57
2022-10-04T06:49:34.132Z,13.68
2022-10-04T06:55:20.915Z,13.73
2022-10-04T07:00:38.756Z,13.87
2022-10-04T07:05:51.614Z,14.09
2022-10-04T07:11:06.525Z,14.20
2022-10-04T07:16:36.148Z,14.35
2022-10-04T07:22:10.385Z,14.47
2022-10-04T07:27:26.822Z,14.66
2022-10-04T07:32:38.511Z,14.86
2022-10-04T07:37:55.617Z,15.08
2022-10-04T07:43:09.680Z,15.28
2022-10-04T07:48:26.289Z,15.49
2022-10-04T07:53:46.239Z,15.68
2022-10-04T07:59:05.951Z,15.90
2022-10-04T08:04:44.737Z,16.11
2022-10-04T08:10:09.925Z,16.19
2022-10-04T08:15:45.134Z,16.29
2022-10-04T08:20:58.731Z,16.40
2022-10-04T08:26:20.252Z,16.52
2022-10-04T08:31:37.599Z,16.65
2022-10-04T08:37:00.268Z,16.74
2022-10-04T08:42:59.062Z,16.82
2022-10-04T08:48:35.410Z,16.86
2022-10-04T08:54:22.302Z,16.86
2022-10-04T09:00:26.325Z,17.03
2022-10-04T09:06:05.990Z,17.19
2022-10-04T09:12:01.776Z,17.35
2022-10-04T09:17:25.559Z,17.40
2022-10-04T09:22:50.486Z,17.49
2022-10-04T09:34:27.381Z,17.69
2022-10-04T09:39:55.786Z,17.71
2022-10-04T09:45:35.625Z,17.85
2022-10-04T09:51:12.353Z,17.95
2022-10-04T09:57:13.530Z,17.96
2022-10-04T10:03:00.559Z,18.10
2022-10-04T10:08:26.079Z,18.29
2022-10-04T10:14:14.759Z,18.27
2022-10-04T10:19:45.189Z,18.28
2022-10-04T10:25:16.530Z,18.32
2022-10-04T10:30:54.803Z,18.36
2022-10-04T10:36:27.419Z,18.44
2022-10-04T10:41:53.459Z,18.49
2022-10-04T10:47:22.479Z,18.57
2022-10-04T10:53:27.143Z,18.72
2022-10-04T10:59:29.205Z,18.77
2022-10-04T11:04:55.450Z,18.90
2022-10-04T11:10:36.269Z,19.07
2022-10-04T11:16:21.026Z,19.12
2022-10-04T11:22:10.839Z,19.04
2022-10-04T11:27:35.465Z,18.98
2022-10-04T11:33:23.920Z,19.07
2022-10-04T11:39:17.265Z,19.13
2022-10-04T11:45:03.270Z,19.27
2022-10-04T11:50:39.390Z,19.37
2022-10-04T11:56:18.182Z,19.42
2022-10-04T12:02:01.543Z,19.41
2022-10-04T12:07:34.223Z,19.40
2022-10-04T12:19:21.221Z,19.66
2022-10-04T12:25:12.125Z,19.68
2022-10-04T12:30:37.205Z,19.72
2022-10-04T12:35:58.380Z,19.72
2022-10-04T12:41:17.663Z,19.74
2022-10-04T12:46:39.702Z,19.65
2022-10-04T12:52:00.901Z,19.58
2022-10-04T12:57:24.526Z,19.57
2022-10-04T13:03:02.754Z,19.49
2022-10-04T13:08:25.527Z,19.51
2022-10-04T13:19:34.585Z,19.45
2022-10-04T13:24:59.481Z,19.44
2022-10-04T13:30:14.060Z,19.41
2022-10-04T13:35:27.179Z,19.36
2022-10-04T13:40:44.376Z,19.30
2022-10-04T13:46:18.974Z,19.26
2022-10-04T13:51:42.871Z,19.21
2022-10-04T13:57:11.353Z,19.19
2022-10-04T14:03:24.327Z,19.16
2022-10-04T14:09:09.725Z,19.14
2022-10-04T14:14:49.987Z,19.08
2022-10-04T14:20:15.743Z,19.01
2022-10-04T14:25:49.305Z,18.96
2022-10-04T14:31:22.440Z,18.92
2022-10-04T14:37:02.888Z,18.91
2022-10-04T14:42:44.906Z,18.84
2022-10-04T14:48:37.897Z,18.77
2022-10-04T14:54:19.493Z,18.74
2022-10-04T14:59:56.762Z,18.71
2022-10-04T15:05:49.785Z,18.67
2022-10-04T15:11:11.940Z,18.58
2022-10-04T15:16:42.875Z,18.56
2022-10-04T15:22:17.679Z,18.54
2022-10-04T15:27:52.571Z,18.53
2022-10-04T15:33:47.538Z,18.50
2022-10-04T15:39:03.326Z,18.44
2022-10-04T15:44:35.024Z,18.43
2022-10-04T15:50:07.765Z,18.38
2022-10-04T15:55:25.728Z,18.33
2022-10-04T16:06:51.544Z,18.21
2022-10-04T16:12:28.952Z,18.17
2022-10-04T16:17:50.007Z,18.09
2022-10-04T16:23:34.253Z,18.03
2022-10-04T16:29:19.293Z,17.91
2022-10-04T16:34:52.674Z,17.81
2022-10-04T16:40:22.083Z,17.75
2022-10-04T16:45:50.825Z,17.64
2022-10-04T16:51:42.384Z,17.57
2022-10-04T16:57:14.545Z,17.44
2022-10-04T17:02:38.116Z,17.34
2022-10-04T17:08:05.601Z,17.27
2022-10-04T17:13:37.603Z,17.13
2022-10-04T17:18:59.343Z,17.03
2022-10-04T17:24:35.495Z,16.94
2022-10-04T17:30:02.938Z,16.84
2022-10-04T17:35:55.918Z,16.74
2022-10-04T17:41:18.474Z,16.61
2022-10-04T17:46:36.867Z,16.52
2022-10-04T17:52:05.454Z,16.41
2022-10-04T17:57:25.000Z,16.32
2022-10-04T18:03:19.010Z,16.25
2022-10-04T18:08:50.160Z,16.17
2022-10-04T18:14:07.020Z,16.06
2022-10-04T18:20:26.482Z,15.99
2022-10-04T18:25:36.576Z,15.90
2022-10-04T18:31:01.421Z,15.84
2022-10-04T18:36:23.444Z,15.76
2022-10-04T18:41:51.278Z,15.71
2022-10-04T18:47:02.764Z,15.65
2022-10-04T18:52:29.391Z,15.59
2022-10-04T18:58:00.535Z,15.51
2022-10-04T19:03:37.476Z,15.44
2022-10-04T19:09:10.609Z,15.36
2022-10-04T19:14:47.307Z,15.26
2022-10-04T19:20:11.421Z,15.20
2022-10-04T19:26:30.471Z,15.13
2022-10-04T19:31:38.436Z,15.04
2022-10-04T19:37:01.171Z,14.97
2022-10-04T19:42:09.788Z,14.88
2022-10-04T19:47:38.423Z,14.84
2022-10-04T19:58:38.702Z,14.72
2022-10-04T20:04:12.046Z,14.64
2022-10-04T20:09:57.956Z,14.61
2022-10-04T20:15:54.434Z,14.54
2022-10-04T20:21:32.984Z,14.45
2022-10-04T20:27:11.865Z,14.39
2022-10-04T20:33:29.745Z,14.33
2022-10-04T20:39:04.824Z,14.23
2022-10-04T20:44:14.758Z,14.15
2022-10-04T20:49:20.452Z,14.10
2022-10-04T20:54:33.837Z,14.05
2022-10-04T20:59:53.145Z,14.03
2022-10-04T21:05:17.472Z,14.03
2022-10-04T21:10:25.662Z,13.95
2022-10-04T21:15:44.058Z,13.92
2022-10-04T21:21:07.470Z,13.85
2022-10-04T21:26:29.097Z,13.82
2022-10-04T21:31:55.781Z,13.80
2022-10-04T21:37:30.693Z,13.80
2022-10-04T21:42:41.843Z,13.76
2022-10-04T21:47:49.558Z,13.75
2022-10-04T21:53:03.677Z,13.71
2022-10-04T21:58:17.274Z,13.68
2022-10-04T22:03:32.132Z,13.65
2022-10-04T22:08:41.209Z,13.64
2022-10-04T22:13:50.742Z,13.66
2022-10-04T22:19:01.528Z,13.63
2022-10-04T22:24:18.580Z,13.61
2022-10-04T22:29:55.031Z,13.61
2022-10-04T22:35:23.410Z,13.60
2022-10-04T22:40:33.127Z,13.56
2022-10-04T22:45:43.163Z,13.52
2022-10-04T22:51:13.690Z,13.45
2022-10-04T22:56:38.854Z,13.37
2022-10-04T23:01:48.018Z,13.31
2022-10-04T23:07:02.482Z,13.29
2022-10-04T23:12:29.081Z,13.28
2022-10-04T23:17:43.012Z,13.25
2022-10-04T23:23:14.673Z,13.23
2022-10-04T23:28:39.830Z,13.22
2022-10-04T23:34:18.030Z,13.19
2022-10-04T23:39:36.603Z,13.17
2022-10-04T23:44:43.185Z,13.15
2022-10-04T23:49:55.618Z,13.14
2022-10-04T23:55:23.917Z,13.16
